Weather at Port-de-Paix Airport

Public forecast

Using degrees Celsius for public forecast. Weather courtesy of forecast.io.

Closest aviation weather report (METAR) to Port-de-Paix Airport

Report is more than 6 hours old.

Closest report is Cap Haitien International Airport, 38.8 nm (71.9 km) ESE. Retrieved 2021/01/12 14:53 UTC (16 days ago):

MTCH 121453Z 11005KT 9999 FEW025 SCT060 27/19 Q1019

Closest aviation forecast (TAF) to Port-de-Paix Airport

Forecast is more than 12 hours old.

Closest forecast is Cap Haitien International Airport, 38.8 nm (71.9 km) ESE. Retrieved 2021/01/27 12:27 UTC (20 hours ago):

TAF TAF MTCH 271221Z 2712/2812 VRB02KT 9000 FEW025 BECMG 2716/2720 05012KT FM280300 VRB02KT 8000 NSC